5K Human Race 2019 oa

2019 - 41st Annual Human Race 5K HUMAN RACE

2019 - 41st Annual Human Race 5K

Overall Finish List

March 02, 19


Results By Classic Race Services, LLC Classic Race Services

HUMAN RACE

Place Name City Bib No Age Gender Age Group Total Time Pace
1 Tripp Berini Davidson NC 790 19 M 1 15-19 19:35.6 6:19/M
2 Matt Wiggin Athens GA 773 21 M 1 20-24 20:19.7 6:33/M
3 Matthew Finol Peachtree Corners GA 650 16 M 2 15-19 20:20.3 6:34/M
4 Gustavo Perez Franklin NC 721 38 M 1 35-39 20:33.4 6:38/M
5 Aaron Hallberg Carlton GA 660 20 M 2 20-24 21:04.3 6:48/M
6 Philip Boyle Athens GA 616 20 M 3 20-24 21:06.3 6:48/M
7 Melissa Landers-Potts Watkinsville GA 909 50 F 1 50-54 21:09.6 6:49/M
8 Duncan David Bogart GA 636 12 M 1 11-14 21:45.5 7:01/M
9 Kyle Stubler Athens GA 785 24 M 4 20-24 21:51.6 7:03/M
10 Mary Baus Fayettville GA 612 19 F 1 15-19 22:25.0 7:14/M
11 Misael Hernandez Athens GA 669 36 M 2 35-39 22:51.8 7:22/M
12 Jason Wright Watkinsville GA 776 24 M 5 20-24 22:56.2 7:24/M
13 Max Commanday Greensboro GA 634 19 M 3 15-19 22:56.5 7:24/M
14 Arun Benny Athens GA 613 21 M 6 20-24 23:24.1 7:33/M
15 Artur Muszynski Athens GA 713 44 M 1 40-44 23:34.5 7:36/M
16 Antoine Orsley Hartwell GA 796 40 M 2 40-44 23:43.6 7:39/M
17 Robbie Christopher Hull GA 631 49 M 1 45-49 23:45.8 7:40/M
18 Julie Barkley Athens GA 610 46 F 1 45-49 23:54.1 7:43/M
19 David McCarthy Athens GA 906 44 M 3 40-44 24:05.4 7:46/M
20 Jenna Hughes Lake Forest IL 674 18 F 2 15-19 24:21.8 7:51/M
21 Maggie Clutter Athens GA 692 17 F 3 15-19 24:23.3 7:52/M
22 Jessica Tardy Atlanta GA 750 19 F 4 15-19 24:34.9 7:55/M
23 Abbey Taylor Watkinsville GA 751 24 F 1 20-24 24:36.8 7:56/M
24 Anna Barkley Athens GA 607 16 F 5 15-19 25:04.8 8:05/M
25 Harold Benton Leesburg GA 791 61 M 1 60-64 25:31.0 8:14/M
26 Melinda Black Clarkesville GA 615 53 F 2 50-54 26:07.3 8:25/M
27 Isabella Dobbins Savannah GA 640 20 F 2 20-24 26:12.0 8:27/M
28 Henry Vencill Athens GA 668 19 M 4 15-19 26:13.0 8:27/M
29 Robert Maxwell Athens GA 797 21 M 7 20-24 26:18.0 8:29/M
30 Lorette Edwards Jackson GA 647 20 F 3 20-24 26:43.3 8:37/M
31 Rachael White Athens GA 769 24 F 4 20-24 26:45.1 8:38/M
32 Nick Hodgkins Gainseville GA 672 21 M 8 20-24 26:46.5 8:38/M
33 Paul Guest Nicholson GA 902 56 M 1 55-59 26:49.7 8:39/M
34 Kevin Ronczkowski Athens GA 737 19 M 5 15-19 26:52.6 8:40/M
35 Billy Goldman Athens GA 896 48 M 2 45-49 27:00.1 8:43/M
36 Brett Marcus Athens GA 895 49 M 3 45-49 27:07.5 8:45/M
37 Andsley Messina Athens GA 703 19 F 6 15-19 27:09.1 8:45/M
38 Marie Johnson Arnoldsville GA 897 37 F 1 35-39 27:09.5 8:45/M
39 Beth Kindamo Athens GA 680 36 F 2 35-39 27:15.6 8:47/M
40 Kristen Kacmar Athens GA 899 37 F 3 35-39 27:16.5 8:48/M
41 Keri Janosik Danielsville GA 908 16 F 7 15-19 27:32.4 8:53/M
42 Hayes Way Athens GA 910 20 M 9 20-24 27:38.3 8:55/M
43 Jacob Arnest Watkinsville GA 602 12 M 2 11-14 27:39.8 8:55/M
44 Booker T Orsley Dewy Rose GA 798 64 M 2 60-64 27:45.8 8:57/M
45 Megan Brosnan Athens GA 781 20 F 5 20-24 27:49.1 8:58/M
46 Luke Lashley Athens GA 683 19 M 6 15-19 27:51.0 8:59/M
47 Leigh Hamblin Alpharetta GA 661 19 F 8 15-19 28:06.2 9:04/M
48 Derek Jesweak Bogart GA 794 46 M 4 45-49 28:15.0 9:07/M
49 Lauren Miller Statham GA 707 29 F 1 25-29 28:16.0 9:07/M
50 Andy Plemmons Winterville GA 727 40 M 4 40-44 28:18.7 9:08/M
51 Dustin Middleton Athens GA 706 30 M 1 30-34 28:33.2 9:13/M
52 Emma Fullett Athens GA 651 21 F 6 20-24 28:50.6 9:18/M
53 Michelle Manganiello Johns Creek GA 695 20 F 7 20-24 29:19.3 9:27/M
54 Susie Walker Jefferson GA 760 47 F 2 45-49 29:30.8 9:31/M
55 Esther Vanderknapp Athens GA 900 53 F 3 50-54 29:48.0 9:37/M
56 William Vencill Athens GA 775 57 M 2 55-59 30:30.3 9:50/M
57 Andrew Komp Athens GA 681 21 M 10 20-24 30:35.0 9:52/M
58 Mary Siebenmorgen Athens GA 746 21 F 8 20-24 30:39.7 9:53/M
59 Greg Weigle Watkinsville GA 767 61 M 3 60-64 30:44.4 9:55/M
60 Herman Sasser Marietta GA 793 74 M 1 70-74 31:07.5 10:02/M
61 Jenna Menke Athens GA 702 25 F 2 25-29 31:19.9 10:06/M
62 Ethan Menke Athens GA 701 26 M 1 25-29 31:20.3 10:06/M
63 Rafael Rivera-Mendez Athens GA 736 71 F 1 70-74 31:43.4 10:14/M
64 Chrissy Moffett Athens GA 708 51 F 4 50-54 31:53.4 10:17/M
65 Page Meadow Watkinsville GA 700 52 F 5 50-54 31:54.7 10:17/M
66 Carolina Ballen Athens GA 606 32 F 1 30-34 32:11.5 10:23/M
67 Zach Lester Watkinsville GA 685 44 M 5 40-44 32:15.7 10:24/M
68 Charlotte Campbell Athens GA 620 11 F 1 11-14 32:18.4 10:25/M
69 Stacy Campbell Athens GA 622 47 F 3 45-49 32:18.7 10:25/M
70 Daniel Zezulka Athens GA 777 31 M 2 30-34 32:20.7 10:26/M
71 Jessica Tran Marietta GA 893 21 F 9 20-24 32:34.5 10:30/M
72 Kyle Arnett Augusta GA 894 22 M 11 20-24 32:34.8 10:30/M
73 Veronica Doster Athens GA 904 57 F 1 55-59 32:41.7 10:33/M
74 Paola Caudill Savannah GA 626 23 F 10 20-24 33:27.7 10:47/M
75 Jim Dowd Athens GA 644 72 M 2 70-74 33:31.3 10:49/M
76 David Montenegro 81 28 M 2 25-29 33:53.0 10:56/M
77 Ross Higginbotham Atlanta GA 671 35 M 3 35-39 34:05.8 11:00/M
78 Dustin Bailey Rome GA 605 20 M 12 20-24 34:24.5 11:06/M
79 Felicia Ebot-Ojony Athens GA 646 22 F 11 20-24 34:39.1 11:11/M
80 Bill Ripley Athens GA 732 57 M 3 55-59 34:51.4 11:15/M
81 Clare Braski Athens GA 618 21 F 12 20-24 35:02.8 11:18/M
82 Chip Lyness Watkinsville GA 628 63 M 4 60-64 35:32.8 11:28/M
83 Olivia MacIk Athens GA 691 19 F 9 15-19 35:54.1 11:35/M
84 Bryan Ripley Athens GA 733 48 M 5 45-49 35:55.3 11:35/M
85 Simon Ripley Athens GA 734 13 M 3 11-14 35:55.8 11:35/M
86 Magge Waller Watkinsville GA 763 13 F 2 11-14 36:10.4 11:40/M
87 Karen Czarick Watkinsville GA 898 53 F 6 50-54 36:12.9 11:41/M
88 Allison Kurtz Athens GA 682 17 F 10 15-19 36:22.9 11:44/M
89 Mckinley Campbell Athens GA 621 16 F 11 15-19 36:25.7 11:45/M
90 Donna Weigle Watkinsville GA 766 59 F 2 55-59 37:04.6 11:57/M
91 Julie Schweppe Winder GA 740 57 F 3 55-59 37:15.7 12:01/M
92 Martha Izaguirre-Garcia Athens GA 675 57 F 4 55-59 37:37.7 12:08/M
93 Sergio Garcia Athens GA 654 60 M 5 60-64 37:59.6 12:15/M
94 Emily Hulse Athens GA 648 42 F 1 40-44 38:21.5 12:22/M
95 Dennis Manganiello Alpharetta GA 694 66 M 1 65-69 38:51.5 12:32/M
96 Elena Lopez Evans GA 689 19 F 12 15-19 38:57.4 12:34/M
97 Madison Bradshaw Rome GA 617 19 F 13 15-19 38:57.9 12:34/M
98 Bill Costantino Jefferson GA 792 75 M 1 75-99 39:43.2 12:49/M
99 Kelly Porter Athens GA 728 49 F 4 45-49 40:05.4 12:56/M
100 Maria Santoyo Athens GA 739 23 F 13 20-24 40:42.8 13:08/M
 
Place Name City Bib No Age Gender Age Group Total Time Pace
101 Jennifer Arnest Watkinsville GA 603 40 M 6 40-44 40:51.3 13:11/M
102 Amy Piche Comer GA 725 33 F 2 30-34 43:01.6 13:53/M
103 Bernard Kacmar Bogart GA 903 73 M 3 70-74 43:15.0 13:57/M
104 Caitlin Middleton Athens GA 705 29 F 3 25-29 43:22.8 13:59/M
105 Monica Burke Bogart GA 709 64 F 1 60-64 43:27.4 14:01/M
106 Kathy Russo Athens GA 738 59 F 5 55-59 43:56.0 14:10/M
107 John Gregg Watkinsville GA 677 72 M 4 70-74 43:57.1 14:11/M
108 Jane Noe Athens GA 715 71 F 2 70-74 44:20.0 14:18/M
109 Maeve Munson Athens GA 712 18 F 14 15-19 44:35.0 14:23/M
110 Jordan McGuire Athens GA 699 18 F 15 15-19 44:36.7 14:23/M
111 Vincent Grano Athens GA 656 19 M 7 15-19 44:36.9 14:23/M
112 Elizabeth Fields Temple GA 649 19 F 16 15-19 44:38.2 14:24/M
113 Rick Donnelly Athens GA 642 70 M 5 70-74 45:13.8 14:35/M
114 Maureen R Killeen Athens GA 679 70 F 3 70-74 45:26.6 14:39/M
115 Tammi Jordan Commerce GA 678 56 F 6 55-59 45:46.3 14:46/M
116 Chip Malanoski Athens GA 693 65 M 2 65-69 46:25.4 14:58/M
117 Aisling Metcalfe Athens GA 704 46 F 5 45-49 46:32.9 15:01/M
118 Maria Castellanos Athens GA 623 40 F 2 40-44 46:34.0 15:01/M
119 Leyton Leynar Athens GA 686 28 M 3 25-29 46:34.3 15:01/M
120 Arjdenneymar Perez-Torres Franklin NC 722 5 M 1 0-10 48:22.5 15:36/M
121 Mary Lou Kau Athens GA 795 76 F 1 75-99 49:17.6 15:54/M
122 Brittany Hayes Grovetown GA 667 22 F 14 20-24 49:19.4 15:55/M
123 Mariana Hernandez-Lozano Carrollton GA 800 20 F 15 20-24 49:19.9 15:55/M
124 Jim Cleary Statham GA 632 83 M 2 75-99 49:53.9 16:05/M
125 Sinda Richard Athens GA 730 70 M 6 70-74 50:40.9 16:21/M
126 Charlie Waller Watkinsville GA 761 12 M 4 11-14 51:28.6 16:36/M
127 Linda Zeeman Atlanta GA 687 74 F 4 70-74 51:42.3 16:41/M
128 Mary Taylor Watkinsville GA 752 56 F 7 55-59 52:36.1 16:58/M
129 Kyle Lininger Watkinsville GA 688 38 M 4 35-39 52:38.0 16:59/M
130 Jayne Day Jefferson GA 676 57 F 8 55-59 53:17.3 17:11/M
131 Grace Thornton Winterville GA 754 59 F 9 55-59 53:17.8 17:11/M
132 Aimee Dowd Athens GA 643 45 F 6 45-49 53:36.9 17:17/M
133 Liz Hammock Bogart GA 663 46 F 7 45-49 54:01.4 17:25/M
134 Isabella Hammock Bogart GA 665 8 F 1 0-10 54:02.5 17:26/M
135 Phil Piche Comer GA 726 73 M 7 70-74 54:03.1 17:26/M
136 Margaretta O'Shea Watkinsville GA 720 73 F 5 70-74 54:36.8 17:37/M
137 Donald O'Shea Watkinsville GA 719 74 M 8 70-74 54:38.7 17:37/M
138 Laura Dowd Athens GA 645 71 F 6 70-74 54:39.2 17:38/M
139 Joe Riley Athens GA 911 75 M 3 75-99 54:59.6 17:44/M